Time;durP1;ratioP1;P1;durP2;ratioP2;P2;SDS_P1;SDS_P2;PMS_P1;PMS_P2;Temp;Humidity;BMP_temperature;BMP_pressure;BME280_temperature;BME280_humidity;BME280_pressure;Samples;Min_cycle;Max_cycle;Signal;HPM_P1;HPM_P2
2021/05/04 00:01:47;;;;;;;8.30;4.95;;;282.00;1843.20;;;;;;5007522;28;20033;-69
2021/05/04 00:04:13;;;;;;;8.93;5.43;;;281.90;1843.20;;;;;;5011071;28;20073;-69
2021/05/04 00:06:39;;;;;;;10.30;5.22;;;281.90;1868.80;;;;;;5011124;28;20029;-68
2021/05/04 00:09:05;;;;;;;7.85;5.18;;;281.80;1868.80;;;;;;5011162;28;20030;-69
2021/05/04 00:11:32;;;;;;;7.88;5.15;;;281.70;1868.80;;;;;;5011529;28;20022;-68
2021/05/04 00:13:58;;;;;;;7.65;4.60;;;281.70;1894.40;;;;;;5011503;28;20045;-67
2021/05/04 00:16:24;;;;;;;7.93;4.63;;;281.70;1894.40;;;;;;5011450;28;20061;-68
2021/05/04 00:18:49;;;;;;;7.78;4.80;;;256.90;1868.80;;;;;;5011339;28;20018;-67
2021/05/04 00:21:15;;;;;;;6.95;4.72;;;256.80;1894.40;;;;;;5011293;28;20038;-67
2021/05/04 00:23:41;;;;;;;9.07;4.68;;;256.70;1894.40;;;;;;5011208;28;20036;-68
2021/05/04 00:26:08;;;;;;;7.13;4.85;;;256.70;1894.40;;;;;;5011475;28;20121;-67
2021/05/04 00:28:35;;;;;;;7.05;4.53;;;256.50;1920.00;;;;;;5010720;28;20533;-68
2021/05/04 00:31:01;;;;;;;7.20;4.47;;;256.50;1920.00;;;;;;5010619;28;20097;-68
2021/05/04 00:33:26;;;;;;;7.97;3.85;;;256.40;1920.00;;;;;;5011034;28;20110;-68
2021/05/04 00:35:53;;;;;;;7.60;4.00;;;256.30;1920.00;;;;;;5010602;28;20112;-67
2021/05/04 00:38:18;;;;;;;7.38;4.10;;;256.30;1945.60;;;;;;5010727;28;20026;-68
2021/05/04 00:40:44;;;;;;;6.72;3.95;;;256.20;1945.60;;;;;;5010000;28;20037;-69
2021/05/04 00:43:10;;;;;;;5.90;3.92;;;256.10;1945.60;;;;;;5011183;28;20029;-67
2021/05/04 00:45:36;;;;;;;6.10;3.78;;;256.00;1945.60;;;;;;5011348;28;20022;-69
2021/05/04 00:48:02;;;;;;;6.88;4.03;;;231.30;1945.60;;;;;;5011969;28;20029;-67
2021/05/04 00:50:28;;;;;;;6.43;3.88;;;231.30;1971.20;;;;;;5010859;28;20097;-68
2021/05/04 00:52:54;;;;;;;6.10;3.83;;;231.20;1971.20;;;;;;5010893;28;20113;-67
2021/05/04 00:55:21;;;;;;;6.55;3.80;;;231.20;1971.20;;;;;;5010860;28;20105;-67
2021/05/04 00:57:51;;;;;;;6.07;3.90;;;231.20;1996.80;;;;;;5010243;28;20034;-66
2021/05/04 01:00:17;;;;;;;6.97;4.00;;;231.10;1996.80;;;;;;5009971;28;20029;-68
2021/05/04 01:02:43;;;;;;;6.78;4.10;;;231.10;1996.80;;;;;;5010731;28;20018;-69
2021/05/04 01:05:10;;;;;;;9.00;3.70;;;231.00;1996.80;;;;;;5010654;28;20131;-67
2021/05/04 01:07:36;;;;;;;6.20;3.90;;;230.90;1996.80;;;;;;5010341;28;20367;-68
2021/05/04 01:10:03;;;;;;;7.53;4.20;;;230.90;2022.40;;;;;;5010059;28;20033;-68
2021/05/04 01:12:30;;;;;;;5.72;3.60;;;230.90;2022.40;;;;;;5010065;28;20033;-69
2021/05/04 01:14:56;;;;;;;7.97;4.32;;;230.90;2022.40;;;;;;5009996;28;20042;-67
2021/05/04 01:17:22;;;;;;;7.07;4.00;;;230.90;2022.40;;;;;;5010359;28;20030;-67
2021/05/04 01:19:48;;;;;;;6.90;4.60;;;230.90;2022.40;;;;;;5009933;28;20036;-66
2021/05/04 01:22:14;;;;;;;7.53;4.50;;;230.90;2022.40;;;;;;5010194;28;20076;-67
2021/05/04 01:24:39;;;;;;;7.03;4.40;;;230.90;2022.40;;;;;;5010613;28;20030;-67
2021/05/04 01:27:06;;;;;;;6.82;4.40;;;230.90;2022.40;;;;;;5010166;28;20045;-67
2021/05/04 01:29:32;;;;;;;8.05;4.30;;;230.90;2022.40;;;;;;5010285;28;20438;-68
2021/05/04 01:31:58;;;;;;;8.30;4.40;;;230.90;2022.40;;;;;;5010395;28;20072;-68
2021/05/04 01:34:24;;;;;;;7.28;4.13;;;230.80;2022.40;;;;;;5010193;28;20056;-68
2021/05/04 01:36:50;;;;;;;7.85;3.95;;;230.80;2022.40;;;;;;5010572;28;20447;-69
2021/05/04 01:39:16;;;;;;;6.32;4.32;;;230.80;2048.00;;;;;;5009768;28;20437;-67
2021/05/04 01:41:43;;;;;;;6.60;4.32;;;230.80;2048.00;;;;;;5010311;28;20018;-68
2021/05/04 01:44:10;;;;;;;6.53;4.38;;;230.80;2048.00;;;;;;5010394;28;20100;-67
2021/05/04 01:46:36;;;;;;;6.50;4.82;;;230.80;2048.00;;;;;;5010291;28;20018;-69
2021/05/04 01:49:06;;;;;;;6.90;4.40;;;230.80;2022.40;;;;;;5010069;28;20129;-68
2021/05/04 01:51:33;;;;;;;6.53;4.07;;;230.80;2022.40;;;;;;5013590;28;20028;-69
2021/05/04 01:53:59;;;;;;;6.22;3.95;;;230.80;2048.00;;;;;;5014099;28;20036;-67
2021/05/04 01:56:25;;;;;;;6.93;4.20;;;230.70;2048.00;;;;;;5014082;28;20030;-67
2021/05/04 01:58:51;;;;;;;7.30;4.10;;;230.70;2048.00;;;;;;5013813;28;20026;-67
2021/05/04 02:01:17;;;;;;;6.70;4.13;;;230.70;2048.00;;;;;;5014262;28;20092;-66
2021/05/04 02:03:43;;;;;;;6.75;4.18;;;230.60;2073.60;;;;;;5013698;28;20467;-67
2021/05/04 02:06:09;;;;;;;5.97;3.70;;;230.60;2073.60;;;;;;5013725;28;20379;-67
2021/05/04 02:08:35;;;;;;;5.80;3.80;;;230.40;2099.20;;;;;;5014025;28;20101;-68
2021/05/04 02:11:02;;;;;;;5.50;3.63;;;205.70;2124.80;;;;;;5013765;28;20101;-67
2021/05/04 02:13:28;;;;;;;5.72;3.60;;;205.50;2150.40;;;;;;5013642;28;20064;-66
2021/05/04 02:15:54;;;;;;;6.90;3.83;;;205.40;2176.00;;;;;;5013680;28;20061;-66
2021/05/04 02:18:19;;;;;;;6.68;3.80;;;205.20;2201.60;;;;;;5013553;28;20402;-67
2021/05/04 02:20:45;;;;;;;6.57;4.13;;;204.90;2252.80;;;;;;5013643;28;20124;-74
2021/05/04 02:23:11;;;;;;;6.45;3.88;;;180.10;2252.80;;;;;;5010685;28;20462;-67
2021/05/04 02:25:37;;;;;;;7.40;3.97;;;180.00;2252.80;;;;;;5014485;28;20018;-73
2021/05/04 02:28:03;;;;;;;6.55;3.97;;;179.90;2252.80;;;;;;5013379;28;20026;-72
2021/05/04 02:30:32;;;;;;;7.55;3.70;;;179.80;2252.80;;;;;;5013173;28;20018;-78
2021/05/04 02:32:58;;;;;;;6.32;3.85;;;179.80;2252.80;;;;;;5013059;28;20072;-71
2021/05/04 02:35:24;;;;;;;5.88;4.00;;;179.70;2252.80;;;;;;5013887;28;20062;-67
2021/05/04 02:37:49;;;;;;;6.85;3.88;;;179.60;2252.80;;;;;;5013087;28;20445;-67
2021/05/04 02:40:15;;;;;;;6.13;3.83;;;179.50;2252.80;;;;;;5012869;28;20022;-65
2021/05/04 02:42:41;;;;;;;6.80;4.18;;;179.50;2252.80;;;;;;5013284;28;20021;-75
2021/05/04 02:45:07;;;;;;;9.05;4.63;;;154.50;2252.80;;;;;;5012532;28;20029;-79
2021/05/04 02:47:33;;;;;;;6.88;4.38;;;154.30;2252.80;;;;;;5013157;28;20549;-73
2021/05/04 02:49:59;;;;;;;16.10;4.53;;;154.30;2252.80;;;;;;5012520;28;20034;-68
2021/05/04 02:52:25;;;;;;;13.15;5.15;;;154.30;2252.80;;;;;;4992232;28;20026;-68
2021/05/04 02:54:50;;;;;;;10.77;4.40;;;154.40;2252.80;;;;;;5007948;28;20053;-76
2021/05/04 02:57:17;;;;;;;13.10;4.57;;;154.40;2252.80;;;;;;5013438;28;20026;-68
2021/05/04 02:59:43;;;;;;;9.93;4.20;;;154.30;2252.80;;;;;;5012249;28;20550;-67
2021/05/04 03:02:09;;;;;;;13.63;4.20;;;154.30;2252.80;;;;;;5011845;28;20129;-67
2021/05/04 03:04:35;;;;;;;9.75;4.50;;;154.30;2252.80;;;;;;5012976;28;20371;-67
2021/05/04 03:07:01;;;;;;;7.72;4.60;;;154.40;2252.80;;;;;;5012633;28;20048;-68
2021/05/04 03:09:27;;;;;;;7.82;4.20;;;154.50;2252.80;;;;;;5012524;28;20494;-67
2021/05/04 03:11:53;;;;;;;8.20;4.15;;;154.50;2252.80;;;;;;5012611;28;20021;-68
2021/05/04 03:14:18;;;;;;;7.38;4.10;;;154.50;2252.80;;;;;;5012532;28;20041;-67
2021/05/04 03:16:44;;;;;;;7.75;4.65;;;154.50;2252.80;;;;;;5012494;28;20053;-67
2021/05/04 03:19:10;;;;;;;9.30;4.20;;;154.50;2252.80;;;;;;5013055;28;20034;-67
2021/05/04 03:21:36;;;;;;;8.38;4.28;;;154.50;2252.80;;;;;;5012662;28;20025;-70
2021/05/04 03:24:02;;;;;;;9.32;4.70;;;154.50;2252.80;;;;;;5012590;28;20034;-67
2021/05/04 03:26:28;;;;;;;8.23;4.63;;;179.20;2252.80;;;;;;5017636;28;20025;-67
2021/05/04 03:28:53;;;;;;;10.30;4.93;;;179.20;2252.80;;;;;;5012162;28;20113;-66
2021/05/04 03:31:19;;;;;;;14.38;4.80;;;179.30;2252.80;;;;;;5012690;28;20100;-68
2021/05/04 03:33:45;;;;;;;8.95;4.28;;;179.30;2252.80;;;;;;4994557;28;20113;-68
2021/05/04 03:36:10;;;;;;;8.45;4.57;;;179.30;2252.80;;;;;;5010613;28;20040;-72
2021/05/04 03:38:36;;;;;;;8.98;4.40;;;179.30;2252.80;;;;;;5011948;28;20037;-72
2021/05/04 03:41:02;;;;;;;7.20;4.32;;;179.40;2252.80;;;;;;4994386;28;20026;-67
2021/05/04 03:43:28;;;;;;;7.28;4.30;;;179.40;2252.80;;;;;;5012198;28;20467;-70
2021/05/04 03:45:53;;;;;;;7.95;4.47;;;179.40;2252.80;;;;;;5012149;28;20034;-69
2021/05/04 03:48:19;;;;;;;14.43;8.23;;;179.40;2252.80;;;;;;5012453;28;20018;-77
2021/05/04 03:50:47;;;;;;;7.60;5.30;;;179.50;2252.80;;;;;;4994089;28;20055;-68
2021/05/04 03:53:13;;;;;;;11.15;4.90;;;179.40;2252.80;;;;;;5012276;28;20033;-68
2021/05/04 03:55:38;;;;;;;9.20;5.68;;;179.40;2252.80;;;;;;5011940;28;20030;-69
2021/05/04 03:58:04;;;;;;;23.60;13.35;;;179.40;2252.80;;;;;;5009572;28;20053;-76
2021/05/04 04:00:30;;;;;;;29.80;12.05;;;179.50;2252.80;;;;;;5011538;28;20049;-67
2021/05/04 04:02:56;;;;;;;14.18;7.28;;;179.50;2252.80;;;;;;5012073;28;20372;-68
2021/05/04 04:05:21;;;;;;;11.50;5.95;;;179.60;2252.80;;;;;;5011896;28;20030;-72
2021/05/04 04:07:47;;;;;;;14.07;8.13;;;179.70;2252.80;;;;;;5011810;28;20100;-68
2021/05/04 04:10:13;;;;;;;29.67;16.63;;;179.80;2252.80;;;;;;5011554;28;20022;-67
2021/05/04 04:12:40;;;;;;;16.88;8.82;;;180.00;2252.80;;;;;;5012257;28;20056;-69
2021/05/04 04:15:07;;;;;;;18.63;10.32;;;180.10;2252.80;;;;;;5011222;28;20169;-69
2021/05/04 04:17:33;;;;;;;22.02;11.80;;;204.80;2252.80;;;;;;5011944;28;20108;-72
2021/05/04 04:19:59;;;;;;;11.93;7.72;;;204.90;2252.80;;;;;;5010986;28;20555;-70
2021/05/04 04:22:25;;;;;;;7.90;3.95;;;205.00;2252.80;;;;;;5011581;28;20076;-77
2021/05/04 04:24:54;;;;;;;8.68;4.70;;;205.20;2252.80;;;;;;5011806;28;20541;-66
2021/05/04 04:27:21;;;;;;;9.75;3.50;;;205.30;2252.80;;;;;;5012419;28;20093;-79
2021/05/04 04:29:47;;;;;;;6.30;3.50;;;205.50;2252.80;;;;;;5011012;28;20516;-76
2021/05/04 04:32:13;;;;;;;5.57;3.30;;;205.60;2252.80;;;;;;5011853;28;20134;-77
2021/05/04 04:34:39;;;;;;;5.72;3.70;;;205.70;2252.80;;;;;;5011285;28;20379;-76
2021/05/04 04:37:04;;;;;;;5.65;3.47;;;230.40;2252.80;;;;;;5011407;28;20121;-77
2021/05/04 04:39:30;;;;;;;6.00;3.72;;;230.60;2252.80;;;;;;5010817;28;20050;-68
2021/05/04 04:41:56;;;;;;;5.70;3.67;;;230.70;2252.80;;;;;;5011266;28;20092;-72
2021/05/04 04:44:22;;;;;;;5.55;3.83;;;230.80;2252.80;;;;;;5010978;28;20034;-76
2021/05/04 04:46:47;;;;;;;7.95;4.03;;;230.90;2252.80;;;;;;5011253;28;20030;-68
2021/05/04 04:49:18;;;;;;;6.22;3.60;;;231.00;2252.80;;;;;;5011425;28;20097;-68
2021/05/04 04:51:45;;;;;;;5.82;4.05;;;231.10;2252.80;;;;;;5011133;28;20029;-67
2021/05/04 04:54:11;;;;;;;6.07;3.70;;;231.30;2252.80;;;;;;5011304;28;20030;-78
2021/05/04 04:56:37;;;;;;;6.45;3.90;;;256.00;2252.80;;;;;;5011069;28;20033;-76
2021/05/04 04:59:04;;;;;;;7.20;3.75;;;256.00;2252.80;;;;;;4993196;28;20152;-68
2021/05/04 05:01:30;;;;;;;5.97;3.70;;;256.40;2252.80;;;;;;5010906;28;20025;-75
2021/05/04 05:03:56;;;;;;;6.88;3.50;;;256.80;2252.80;;;;;;5011110;28;20018;-66
2021/05/04 05:06:22;;;;;;;6.05;3.33;;;282.00;2227.20;;;;;;5010923;28;20044;-66
2021/05/04 05:08:51;;;;;;;5.82;3.30;;;307.50;2150.40;;;;;;5011115;28;20025;-67
2021/05/04 05:11:18;;;;;;;5.13;3.13;;;308.10;2022.40;;;;;;5010969;28;20077;-68
2021/05/04 05:13:45;;;;;;;5.30;3.00;;;332.90;1996.80;;;;;;5010993;28;20033;-67
2021/05/04 05:16:12;;;;;;;5.03;3.38;;;333.50;1945.60;;;;;;5010919;28;20057;-67
2021/05/04 05:18:38;;;;;;;5.18;3.58;;;359.10;1868.80;;;;;;5010934;28;20076;-78
2021/05/04 05:21:04;;;;;;;7.57;5.40;;;384.40;1766.40;;;;;;5010558;28;20026;-69
2021/05/04 05:23:30;;;;;;;9.32;5.00;;;409.80;1740.80;;;;;;5011148;28;20026;-68
2021/05/04 05:25:57;;;;;;;6.93;4.20;;;410.40;1664.00;;;;;;5014803;28;20463;-69
2021/05/04 05:28:23;;;;;;;8.50;4.63;;;435.60;1638.40;;;;;;5014979;28;20033;-68
2021/05/04 05:30:49;;;;;;;11.77;5.97;;;435.90;1587.20;;;;;;5014170;28;20029;-67
2021/05/04 05:33:15;;;;;;;9.98;5.20;;;461.10;1536.00;;;;;;5014540;28;20042;-78
2021/05/04 05:35:40;;;;;;;9.48;5.70;;;461.50;1510.40;;;;;;5014650;28;20111;-70
2021/05/04 05:38:06;;;;;;;7.68;4.97;;;486.60;1484.80;;;;;;5014256;28;20030;-70
2021/05/04 05:40:32;;;;;;;11.30;5.43;;;487.10;1433.60;;;;;;5013969;28;20026;-71
2021/05/04 05:42:58;;;;;;;7.35;5.00;;;487.30;1408.00;;;;;;5014263;28;20364;-69
2021/05/04 05:45:24;;;;;;;6.63;4.20;;;512.30;1356.80;;;;;;5014269;28;20032;-69
2021/05/04 05:47:50;;;;;;;7.28;4.50;;;512.90;1331.20;;;;;;5013951;28;20055;-69
2021/05/04 05:50:16;;;;;;;8.65;4.32;;;537.90;1331.20;;;;;;5014246;28;20026;-72
2021/05/04 05:52:42;;;;;;;10.73;6.57;;;538.30;1280.00;;;;;;5014082;28;20059;-67
2021/05/04 05:55:08;;;;;;;7.68;4.72;;;563.50;1280.00;;;;;;5014347;28;20033;-71
2021/05/04 05:57:34;;;;;;;8.20;4.35;;;538.40;1254.40;;;;;;5013940;28;20037;-68
2021/05/04 06:00:00;;;;;;;14.35;9.68;;;538.50;1228.80;;;;;;5013794;28;20429;-69
2021/05/04 06:02:25;;;;;;;9.07;6.05;;;563.40;1254.40;;;;;;5013876;28;20018;-69
2021/05/04 06:04:52;;;;;;;7.70;6.60;;;564.10;1228.80;;;;;;5013959;28;20378;-67
2021/05/04 06:07:18;;;;;;;6.82;5.13;;;588.90;1203.20;;;;;;5013734;28;20487;-73
2021/05/04 06:09:44;;;;;;;6.80;4.75;;;588.80;1203.20;;;;;;4996066;28;20191;-74
2021/05/04 06:12:09;;;;;;;8.90;5.47;;;589.70;1152.00;;;;;;5013702;28;20531;-69
2021/05/04 06:14:35;;;;;;;8.40;5.20;;;589.00;1152.00;;;;;;5013642;28;20061;-69
2021/05/04 06:17:01;;;;;;;8.27;4.93;;;614.50;1126.40;;;;;;5013578;28;20059;-78
2021/05/04 06:19:27;;;;;;;7.45;4.93;;;589.70;1100.80;;;;;;5013776;28;20030;-69
2021/05/04 06:21:52;;;;;;;8.38;6.75;;;615.30;1075.20;;;;;;5013293;28;20104;-81
2021/05/04 06:24:21;;;;;;;6.47;5.22;;;615.30;1075.20;;;;;;5013495;28;20021;-77
2021/05/04 06:26:47;;;;;;;8.32;5.05;;;640.30;1049.60;;;;;;5014825;28;20025;-69
2021/05/04 06:29:13;;;;;;;6.80;4.65;;;640.60;998.40;;;;;;5013283;28;20026;-70
2021/05/04 06:31:39;;;;;;;9.55;5.10;;;640.90;1024.00;;;;;;5013173;28;20022;-78
2021/05/04 06:34:06;;;;;;;9.35;4.97;;;665.60;1049.60;;;;;;5013127;28;20029;-80
2021/05/04 06:36:32;;;;;;;7.50;4.65;;;665.70;1049.60;;;;;;5013407;28;20029;-74
2021/05/04 06:38:58;;;;;;;8.93;5.10;;;666.40;998.40;;;;;;5012968;28;20048;-73
2021/05/04 06:41:23;;;;;;;6.32;4.53;;;691.60;972.80;;;;;;5012969;28;20033;-75
2021/05/04 06:43:50;;;;;;;6.22;4.80;;;691.20;998.40;;;;;;5013374;28;20030;-70
2021/05/04 06:46:16;;;;;;;7.00;4.50;;;692.10;947.20;;;;;;5013165;28;20507;-69
2021/05/04 06:48:42;;;;;;;6.55;4.90;;;691.80;947.20;;;;;;5012963;28;20052;-67
2021/05/04 06:51:08;;;;;;;5.78;4.25;;;691.70;947.20;;;;;;5012896;28;20096;-69
2021/05/04 06:53:33;;;;;;;6.88;4.45;;;716.90;972.80;;;;;;5013097;28;20032;-67
2021/05/04 06:55:59;;;;;;;5.78;4.43;;;717.50;947.20;;;;;;5013052;28;20026;-68
2021/05/04 06:58:25;;;;;;;7.25;4.60;;;691.90;921.60;;;;;;5012790;28;20114;-68
2021/05/04 07:00:51;;;;;;;5.18;4.10;;;691.90;947.20;;;;;;4995212;28;20022;-79
2021/05/04 07:03:16;;;;;;;6.15;4.40;;;691.80;947.20;;;;;;5012609;28;20029;-68
2021/05/04 07:05:42;;;;;;;5.05;3.88;;;717.20;921.60;;;;;;5012917;28;20117;-67
2021/05/04 07:08:08;;;;;;;7.30;4.38;;;717.30;896.00;;;;;;5012691;28;20026;-68
2021/05/04 07:10:34;;;;;;;5.32;4.32;;;742.50;921.60;;;;;;5012643;28;20402;-76
2021/05/04 07:13:02;;;;;;;5.30;3.80;;;717.30;921.60;;;;;;5012585;28;20132;-71
2021/05/04 07:15:27;;;;;;;7.40;4.15;;;743.00;896.00;;;;;;5012642;28;20080;-68
2021/05/04 07:17:53;;;;;;;6.50;4.03;;;742.50;870.40;;;;;;5012881;28;20479;-68
2021/05/04 07:20:21;;;;;;;9.60;4.35;;;743.10;870.40;;;;;;5012060;28;20033;-68
2021/05/04 07:22:54;;;;;;;21.05;5.22;;;742.80;870.40;;;;;;5012463;28;20034;-69
2021/05/04 07:25:20;;;;;;;15.88;4.72;;;743.00;870.40;;;;;;5014651;28;20101;-66
2021/05/04 07:27:46;;;;;;;7.50;3.80;;;768.10;844.80;;;;;;5012601;28;20439;-67
2021/05/04 07:30:13;;;;;;;6.65;4.20;;;768.40;844.80;;;;;;5012395;28;20022;-67
2021/05/04 07:32:39;;;;;;;8.95;4.38;;;768.30;844.80;;;;;;5012501;28;20416;-68
2021/05/04 07:35:05;;;;;;;5.50;4.18;;;743.10;870.40;;;;;;5012177;28;20067;-67
2021/05/04 07:37:31;;;;;;;5.10;3.92;;;743.10;844.80;;;;;;5012110;28;20038;-75
2021/05/04 07:39:57;;;;;;;6.32;4.00;;;768.60;819.20;;;;;;4994359;28;20029;-66
2021/05/04 07:42:22;;;;;;;7.65;3.90;;;768.90;819.20;;;;;;5012323;28;20121;-66
2021/05/04 07:44:48;;;;;;;7.88;3.83;;;768.80;819.20;;;;;;5012073;28;20100;-67
2021/05/04 07:47:14;;;;;;;8.45;3.92;;;742.70;896.00;;;;;;5012249;28;20371;-67
2021/05/04 07:49:44;;;;;;;8.35;3.90;;;717.10;896.00;;;;;;5011402;28;20026;-75
2021/05/04 07:52:11;;;;;;;6.25;3.70;;;691.80;870.40;;;;;;5012090;28;20026;-75
2021/05/04 07:54:37;;;;;;;5.35;3.88;;;691.40;896.00;;;;;;5011796;28;20510;-75
2021/05/04 07:57:03;;;;;;;9.30;3.90;;;666.30;921.60;;;;;;5012066;28;20356;-70
2021/05/04 07:59:28;;;;;;;5.75;4.05;;;665.70;947.20;;;;;;5011723;28;20029;-68
2021/05/04 08:01:55;;;;;;;6.85;3.70;;;614.60;998.40;;;;;;5011730;28;20557;-71
2021/05/04 08:04:21;;;;;;;6.45;3.92;;;614.60;998.40;;;;;;4994248;28;20394;-77
2021/05/04 08:06:46;;;;;;;6.22;3.65;;;614.50;1024.00;;;;;;4998718;28;20024;-68
2021/05/04 08:09:12;;;;;;;6.20;3.50;;;614.40;1024.00;;;;;;4995702;28;20287;-68
2021/05/04 08:11:38;;;;;;;5.88;3.55;;;614.50;1024.00;;;;;;4995598;28;20098;-68
2021/05/04 08:14:06;;;;;;;6.47;3.53;;;589.50;1049.60;;;;;;5011552;28;20089;-70
2021/05/04 08:16:32;;;;;;;7.00;4.30;;;564.00;1075.20;;;;;;5008503;28;20064;-70
2021/05/04 08:18:58;;;;;;;5.63;3.75;;;538.40;1100.80;;;;;;4993722;28;20546;-70
2021/05/04 08:21:27;;;;;;;5.60;3.58;;;538.50;1075.20;;;;;;4993621;28;20065;-70
2021/05/04 08:23:53;;;;;;;8.13;3.70;;;563.50;1126.40;;;;;;5000917;28;20375;-71
2021/05/04 08:26:19;;;;;;;5.75;3.70;;;563.60;1126.40;;;;;;5008442;28;20021;-71
2021/05/04 08:28:45;;;;;;;6.00;3.33;;;563.40;1126.40;;;;;;4997168;28;20113;-71
2021/05/04 08:31:11;;;;;;;7.63;3.60;;;563.50;1126.40;;;;;;4992863;28;20031;-79
2021/05/04 08:33:37;;;;;;;5.25;3.15;;;563.70;1100.80;;;;;;4994901;28;20034;-73
2021/05/04 08:36:03;;;;;;;5.75;3.47;;;588.90;1126.40;;;;;;5004823;28;20026;-70
2021/05/04 08:38:29;;;;;;;6.75;3.10;;;589.00;1152.00;;;;;;5011103;28;20040;-71
2021/05/04 08:40:54;;;;;;;5.43;3.63;;;589.70;1049.60;;;;;;5010445;28;20109;-69
2021/05/04 08:43:22;;;;;;;4.95;3.45;;;564.10;1075.20;;;;;;4993151;28;20026;-78
2021/05/04 08:45:55;;;;;;;6.28;3.47;;;563.80;1100.80;;;;;;5009525;28;20125;-76
2021/05/04 08:48:22;;;;;;;5.68;2.90;;;588.80;1100.80;;;;;;4991571;28;20018;-71
2021/05/04 08:50:48;;;;;;;4.75;2.72;;;589.70;1049.60;;;;;;4990818;28;20037;-70
2021/05/04 08:53:15;;;;;;;4.28;2.92;;;614.80;1024.00;;;;;;4997625;28;20034;-80
2021/05/04 08:55:40;;;;;;;5.57;3.35;;;615.20;1024.00;;;;;;5007197;28;20108;-74
2021/05/04 08:58:06;;;;;;;4.82;2.97;;;614.60;1024.00;;;;;;4992106;28;20077;-76
2021/05/04 09:00:32;;;;;;;6.22;3.33;;;614.50;1024.00;;;;;;4994391;28;20078;-71
2021/05/04 09:03:01;;;;;;;18.42;4.40;;;614.80;998.40;;;;;;4997269;28;20023;-71
2021/05/04 09:11:54;;;;;;;5.25;2.90;;;640.20;998.40;;;;;;5014789;28;20061;-72
2021/05/04 09:15:15;;;;;;;6.50;2.92;;;640.20;972.80;;;;;;5006141;28;20038;-71
2021/05/04 09:17:38;;;;;;;4.90;2.60;;;615.00;998.40;;;;;;5007041;28;20049;-71
2021/05/04 09:20:20;;;;;;;5.57;2.90;;;615.00;998.40;;;;;;5013534;28;20559;-71
2021/05/04 09:22:46;;;;;;;9.45;3.40;;;640.30;998.40;;;;;;5014394;28;20033;-69
2021/05/04 09:25:32;;;;;;;12.27;2.63;;;640.40;998.40;;;;;;5015507;28;20025;-68
2021/05/04 09:28:05;;;;;;;7.35;2.83;;;640.40;998.40;;;;;;5012992;28;20045;-78
2021/05/04 09:30:31;;;;;;;5.55;2.70;;;640.80;947.20;;;;;;5013415;28;20022;-68
2021/05/04 09:33:08;;;;;;;4.15;2.33;;;640.90;947.20;;;;;;5008052;28;20030;-68
2021/05/04 09:35:35;;;;;;;4.10;2.58;;;665.70;998.40;;;;;;5012447;28;20104;-78
2021/05/04 09:38:09;;;;;;;4.53;2.80;;;640.40;972.80;;;;;;5007393;28;20073;-68
2021/05/04 09:40:37;;;;;;;4.55;2.60;;;615.20;998.40;;;;;;5012260;28;20030;-70
2021/05/04 09:43:14;;;;;;;9.07;3.20;;;640.50;998.40;;;;;;5014022;28;20028;-68
2021/05/04 09:45:57;;;;;;;4.35;2.30;;;640.90;998.40;;;;;;5014252;28;20030;-67
2021/05/04 09:48:24;;;;;;;5.05;2.50;;;640.90;998.40;;;;;;5013334;28;20494;-68
2021/05/04 09:51:05;;;;;;;4.60;2.60;;;665.70;998.40;;;;;;5013425;28;20022;-68
2021/05/04 09:53:46;;;;;;;6.60;2.55;;;640.40;998.40;;;;;;5009522;28;20030;-68
2021/05/04 09:56:14;;;;;;;4.05;2.60;;;640.70;998.40;;;;;;5013954;28;20034;-68
2021/05/04 09:58:49;;;;;;;4.22;2.58;;;640.40;1024.00;;;;;;5013578;28;20032;-67
2021/05/04 10:01:16;;;;;;;4.45;2.80;;;615.30;1024.00;;;;;;4995562;28;20109;-67
2021/05/04 10:03:44;;;;;;;4.55;2.70;;;614.50;1049.60;;;;;;5013682;28;20022;-69
2021/05/04 10:06:15;;;;;;;4.57;2.60;;;614.70;1049.60;;;;;;5005465;28;20050;-68
2021/05/04 10:08:40;;;;;;;;;;;615.10;1049.60;;;;;;5013074;28;20029;-67
2021/05/04 10:11:12;;;;;;;8.50;3.50;;;640.10;1024.00;;;;;;5011961;28;19909;-67
2021/05/04 10:13:39;;;;;;;5.90;2.70;;;640.70;998.40;;;;;;5013473;28;20501;-68
2021/05/04 10:16:06;;;;;;;7.88;3.05;;;640.60;998.40;;;;;;5013347;28;20115;-68
2021/05/04 10:18:33;;;;;;;6.35;2.70;;;665.90;998.40;;;;;;5013613;28;20030;-67
2021/05/04 10:21:02;;;;;;;11.45;3.00;;;666.00;972.80;;;;;;5012826;28;20030;-68
2021/05/04 10:23:29;;;;;;;4.82;2.85;;;665.90;998.40;;;;;;5016047;28;20112;-75
2021/05/04 10:26:03;;;;;;;8.65;2.95;;;665.70;998.40;;;;;;5019021;28;20018;-67
2021/05/04 10:28:36;;;;;;;5.30;2.40;;;665.60;998.40;;;;;;5013878;28;20022;-67
2021/05/04 10:31:07;;;;;;;4.13;2.70;;;665.60;1024.00;;;;;;5011832;28;20040;-66
2021/05/04 10:33:36;;;;;;;4.32;2.30;;;640.30;998.40;;;;;;5011209;28;20022;-72
2021/05/04 10:36:02;;;;;;;4.05;2.47;;;640.10;998.40;;;;;;5002567;28;20022;-68
2021/05/04 10:38:54;;;;;;;6.10;2.53;;;615.10;998.40;;;;;;4999007;28;20087;-71
2021/05/04 10:41:24;;;;;;;4.47;2.33;;;615.10;1049.60;;;;;;5002632;28;20484;-68
2021/05/04 10:44:12;;;;;;;3.75;2.60;;;615.10;1049.60;;;;;;5010717;28;20061;-68
2021/05/04 10:46:42;;;;;;;3.45;2.50;;;614.50;1049.60;;;;;;4994641;28;20424;-71
2021/05/04 10:49:15;;;;;;;3.63;2.40;;;614.70;1049.60;;;;;;5012890;28;20433;-72
2021/05/04 10:51:47;;;;;;;7.10;2.40;;;614.80;1049.60;;;;;;5004263;28;20030;-80
2021/05/04 10:54:16;;;;;;;3.35;2.20;;;615.20;1024.00;;;;;;5004918;28;20030;-69
2021/05/04 10:56:46;;;;;;;4.07;2.42;;;640.50;1024.00;;;;;;5001055;28;20037;-72
2021/05/04 10:59:19;;;;;;;3.45;2.10;;;640.70;998.40;;;;;;5010499;28;20033;-71
2021/05/04 11:15:19;;;;;;;5.63;2.50;;;666.00;1024.00;;;;;;5148857;27;20442;-68
2021/05/04 11:17:45;;;;;;;5.05;3.13;;;666.30;998.40;;;;;;5129367;27;20027;-67
2021/05/04 11:20:32;;;;;;;4.90;2.80;;;666.20;998.40;;;;;;5128130;28;20031;-67
2021/05/04 11:22:57;;;;;;;5.07;2.45;;;640.40;998.40;;;;;;5128195;28;20504;-68
2021/05/04 11:25:43;;;;;;;4.68;2.80;;;640.60;998.40;;;;;;5128136;28;20024;-67
2021/05/04 11:28:09;;;;;;;5.85;2.90;;;665.60;1024.00;;;;;;5128785;28;20144;-67
2021/05/04 11:30:39;;;;;;;5.00;2.70;;;640.30;998.40;;;;;;5128018;28;20023;-68
2021/05/04 11:33:25;;;;;;;4.90;2.83;;;640.00;1024.00;;;;;;5128778;28;20023;-69
2021/05/04 11:35:51;;;;;;;4.10;2.83;;;640.60;998.40;;;;;;5128338;28;20030;-67
2021/05/04 11:38:23;;;;;;;4.30;2.53;;;640.90;998.40;;;;;;5128242;28;20451;-69
2021/05/04 11:40:49;;;;;;;5.85;2.83;;;665.70;1024.00;;;;;;5127881;28;20019;-67
2021/05/04 11:43:17;;;;;;;6.82;3.10;;;665.70;1024.00;;;;;;5109590;28;20023;-66
2021/05/04 11:45:43;;;;;;;6.60;2.90;;;665.70;1024.00;;;;;;5128427;28;20080;-72
2021/05/04 11:48:10;;;;;;;5.78;3.00;;;666.00;1024.00;;;;;;5127966;28;20476;-66
2021/05/04 11:50:38;;;;;;;3.60;2.72;;;666.20;998.40;;;;;;5127189;28;20035;-67
2021/05/04 11:53:14;;;;;;;3.83;2.85;;;666.30;1024.00;;;;;;5125927;28;20121;-76
2021/05/04 11:55:42;;;;;;;3.83;2.75;;;666.30;1024.00;;;;;;5127614;28;20039;-67
2021/05/04 11:58:15;;;;;;;4.22;2.63;;;665.60;1024.00;;;;;;5127725;27;20026;-66
2021/05/04 12:00:41;;;;;;;4.30;2.92;;;665.60;1049.60;;;;;;5126567;28;20369;-67
2021/05/04 12:03:12;;;;;;;6.40;3.10;;;640.50;998.40;;;;;;5126908;28;20034;-66
2021/05/04 12:05:39;;;;;;;5.93;3.17;;;640.70;1049.60;;;;;;5119000;28;20023;-66
2021/05/04 12:08:06;;;;;;;4.85;2.97;;;640.60;1049.60;;;;;;5112500;28;20064;-66
2021/05/04 12:10:40;;;;;;;4.50;3.05;;;640.30;1024.00;;;;;;5125730;28;20029;-65
2021/05/04 12:13:26;;;;;;;5.18;2.92;;;615.00;1049.60;;;;;;5127313;28;20107;-66
2021/05/04 12:15:54;;;;;;;4.78;2.65;;;615.10;1049.60;;;;;;5113649;28;20020;-66
2021/05/04 12:18:24;;;;;;;5.50;2.90;;;615.30;1075.20;;;;;;5114036;28;20031;-66
2021/05/04 12:20:55;;;;;;;4.82;2.90;;;615.30;1049.60;;;;;;5113353;28;20062;-66
2021/05/04 12:23:28;;;;;;;5.50;2.80;;;615.30;1049.60;;;;;;5113800;28;20035;-66
2021/05/04 12:26:02;;;;;;;4.72;3.10;;;615.20;1049.60;;;;;;5111554;28;20024;-66
2021/05/04 12:28:53;;;;;;;4.32;3.00;;;615.10;1049.60;;;;;;5113542;28;20426;-66
2021/05/04 12:31:21;;;;;;;4.50;3.00;;;615.00;1075.20;;;;;;5099770;28;20084;-67
2021/05/04 12:33:50;;;;;;;4.57;3.00;;;614.80;1049.60;;;;;;5113645;28;20112;-66
2021/05/04 12:36:44;;;;;;;4.93;3.10;;;615.00;1049.60;;;;;;5113480;28;20024;-67
2021/05/04 12:39:31;;;;;;;4.15;3.03;;;615.00;1075.20;;;;;;5112926;28;20028;-67
2021/05/04 12:42:00;;;;;;;4.30;2.83;;;615.20;1075.20;;;;;;5113062;28;20030;-67